FW1406 Corleone IT current weather conditions

sailwx.info

Wind from 320 at 6 knots gusting 13

Air temperature 12.8° C
Dewpoint 7.4° C

Last reported at 2020-Jan-25 13:02 UTC.
Time now 2020-Jan-25 13:41 UTC

Location: N 37°46' E 013°18'.
View on Google Maps.

See reports from other nearby stations

  
Tides and Currents Weather Stations Pressure Air Temp Water Temp Dewpoint Dewpoint Depression Visibility Wind Speed Wind Dir Waves Ship Positions
date/time (UTC)wind fromknots sea level pressurealtimeterstation pressurevisibilityair tempwater tempwave heightnotes
2020-Jan-25 13:02 320 6 gusting 13 12.8
2020-Jan-25 12:46 308 9 gusting 15 13.3
2020-Jan-25 12:31 291 12 gusting 15 13.9
2020-Jan-25 12:16 313 6 gusting 15 13.3
2020-Jan-25 12:01 298 6 gusting 12 13.3
2020-Jan-25 11:46 250 8 gusting 15 12.8
2020-Jan-25 11:32 250 6 gusting 17 12.8
2020-Jan-25 11:16 275 10 gusting 17 12.2
2020-Jan-25 11:00 287 11 gusting 19 11.7
2020-Jan-25 10:46 294 6 gusting 14 12.2
2020-Jan-25 10:30 280 8 gusting 16 12.2
2020-Jan-25 10:15 284 6 gusting 17 11.7
2020-Jan-25 10:00 289 9 gusting 15 11.7
2020-Jan-25 09:45 273 10 gusting 15 11.1
2020-Jan-25 09:32 278 6 gusting 18 10.6
2020-Jan-25 09:16 274 13 gusting 19 11.1
2020-Jan-25 09:01 295 6 gusting 19 10.6
2020-Jan-25 08:47 287 10 gusting 19 10.6
2020-Jan-25 08:34 270 7 gusting 15 10.0
2020-Jan-25 08:17 281 6 gusting 14 10.0
2020-Jan-25 08:03 271 7 gusting 16 9.4
2020-Jan-25 07:46 277 0 gusting 10 9.4
2020-Jan-25 07:30 309 8.9
2020-Jan-25 07:15 026 8.3
2020-Jan-25 07:01 286 8.3
2020-Jan-25 06:45 046 7.8
2020-Jan-25 06:30 128 7.2
2020-Jan-25 06:15 138 7.2
2020-Jan-25 06:00 054 7.8
2020-Jan-25 05:45 101 8.3
2020-Jan-25 05:30 302 8.3
2020-Jan-25 05:15 209 7.8
2020-Jan-25 05:00 200 7.8
2020-Jan-25 04:47 217 8.9
2020-Jan-25 04:30 246 0 gusting 6 8.9
2020-Jan-25 04:15 217 8.9
2020-Jan-25 04:00 092 8.9
2020-Jan-25 03:45 221 8.9
2020-Jan-25 03:30 257 4 gusting 13 8.9
2020-Jan-25 03:18 250 12 gusting 22 8.9
2020-Jan-25 03:03 246 16 gusting 21 8.9
2020-Jan-25 02:47 235 13 gusting 22 8.9
2020-Jan-25 02:32 258 13 gusting 26 8.9
2020-Jan-25 02:16 258 13 gusting 24 8.9
2020-Jan-25 02:02 271 14 gusting 24 8.9
2020-Jan-25 01:48 315 0 gusting 10 8.9
2020-Jan-25 01:31 360 8.3
2020-Jan-25 01:16 281 3 gusting 17 8.3
2020-Jan-25 01:01 261 7 gusting 20 8.3
2020-Jan-25 00:46 265 12 gusting 21 8.3
2020-Jan-25 00:32 273 6 gusting 20 8.3
2020-Jan-25 00:17 257 12 gusting 21 8.3
2020-Jan-25 00:01 284 12 gusting 22 8.3
2020-Jan-24 23:46 282 13 gusting 23 8.3
2020-Jan-24 23:31 281 4 gusting 18 8.3
2020-Jan-24 23:17 226 8.3
2020-Jan-24 23:02 250 0 gusting 10 8.3
2020-Jan-24 22:47 306 8.3
2020-Jan-24 22:32 277 1 gusting 13 8.3
2020-Jan-24 22:16 276 1 gusting 13 8.3
2020-Jan-24 22:01 215 8.3
2020-Jan-24 21:47 034 1 gusting 10 8.3
2020-Jan-24 21:30 132 7.8
2020-Jan-24 21:15 088 8.3
2020-Jan-24 21:01 092 8.3
2020-Jan-24 20:46 108 8.3
2020-Jan-24 20:32 338 8.3
2020-Jan-24 20:16 271 16 gusting 27 8.9
2020-Jan-24 20:01 246 21 gusting 31 8.9
2020-Jan-24 19:48 251 25 gusting 34 9.4
2020-Jan-24 19:30 254 23 gusting 33 9.4
2020-Jan-24 19:15 258 20 gusting 32 9.4
2020-Jan-24 19:00 264 24 gusting 33 9.4
2020-Jan-24 18:45 253 20 gusting 29 10.0
2020-Jan-24 18:30 248 23 gusting 31 9.4
2020-Jan-24 18:15 276 19 gusting 33 9.4
2020-Jan-24 18:00 253 22 gusting 33 9.4
2020-Jan-24 17:45 250 25 gusting 33 9.4
2020-Jan-24 17:17 246 18 gusting 31 8.9
2020-Jan-24 17:03 258 20 gusting 33 9.4
2020-Jan-24 16:46 246 20 gusting 33 9.4
2020-Jan-24 16:30 256 22 gusting 30 9.4
2020-Jan-24 16:15 261 18 gusting 26 9.4
2020-Jan-24 16:02 265 6 gusting 21 10.0
2020-Jan-24 15:47 259 11.1
2020-Jan-24 15:16 329 12.2
2020-Jan-24 15:01 343 11.7
2020-Jan-24 14:46 136 0 gusting 9 11.1
2020-Jan-24 14:17 069 12.2
2020-Jan-24 14:02 164 3 gusting 9 11.7
2020-Jan-24 13:45 247 4 gusting 18 11.7
2020-Jan-24 13:15 286 9 gusting 17 11.7
2020-Jan-24 13:00 249 4 gusting 18 11.1
2020-Jan-24 12:46 296 4 gusting 12 12.8
2020-Jan-24 12:15 327 9 gusting 18 12.8
2020-Jan-24 12:00 338 13.9
2020-Jan-24 11:45 005 5 gusting 14 13.3
2020-Jan-24 11:17 360 8 gusting 16 12.2
2020-Jan-24 11:01 005 9 gusting 18 11.7
2020-Jan-24 10:46 323 6 gusting 21 11.1
2020-Jan-24 10:17 185 1 gusting 15 11.7
2020-Jan-24 10:01 309 6 gusting 18 11.1
2020-Jan-24 09:46 336 6 gusting 10 12.2
2020-Jan-24 09:15 061 11.7
2020-Jan-24 09:00 328 11.1
2020-Jan-24 08:45 138 10.6
2020-Jan-24 08:16 123 8.9
2020-Jan-24 08:00 106 7.8
2020-Jan-24 07:45 161 7.2
2020-Jan-24 07:15 148 6.7
2020-Jan-24 07:02 207 6.7
2020-Jan-24 06:47 203 6.7
2020-Jan-24 06:16 244 0 gusting 7 6.7
2020-Jan-24 06:02 106 6.1
2020-Jan-24 05:46 216 5.6
2020-Jan-24 05:32 167 5.6
2020-Jan-24 05:16 091 6.1
2020-Jan-24 04:46 213 6.1
2020-Jan-24 04:32 259 6.1
2020-Jan-24 04:16 237 5.6
2020-Jan-24 03:46 215 5.0
2020-Jan-24 03:30 253 5.0
2020-Jan-24 03:16 237 5.0
2020-Jan-24 02:47 227 5.0
2020-Jan-24 02:30 227 5.6
2020-Jan-24 02:17 214 5.0
2020-Jan-24 01:45 005 5.6
2020-Jan-24 01:32 230 5.6
2020-Jan-24 01:16 259 5.6
2020-Jan-24 00:45 223 5.6
2020-Jan-24 00:31 254 5.0
2020-Jan-24 00:16 226 5.0
2020-Jan-23 23:46 249 5.0
2020-Jan-23 23:30 240 5.6
2020-Jan-23 23:15 242 5.6
2020-Jan-23 22:45 216 5.0
2020-Jan-23 22:30 245 5.0
2020-Jan-23 22:15 240 5.6
2020-Jan-23 21:45 252 5.0
2020-Jan-23 21:30 125 5.0
2020-Jan-23 21:16 225 5.6
2020-Jan-23 20:46 223 5.6
2020-Jan-23 20:30 227 5.6
2020-Jan-23 20:15 224 5.6
2020-Jan-23 19:46 227 5.6
2020-Jan-23 19:31 223 5.6
2020-Jan-23 19:15 252 5.6
2020-Jan-23 18:48 215 6.1
2020-Jan-23 18:32 238 6.1
2020-Jan-23 18:17 098 6.7
2020-Jan-23 17:45 086 6.7
2020-Jan-23 17:30 196 6.7
2020-Jan-23 16:30 300 8.9
2020-Jan-23 16:15 295 8.9
2020-Jan-23 15:48 306 0 gusting 8 10.0
2020-Jan-23 15:33 294 3 gusting 10 10.6
2020-Jan-23 15:19 288 1 gusting 11 10.6
2020-Jan-23 14:46 315 2 gusting 13 11.1
2020-Jan-23 14:32 329 9 gusting 13 11.1
2020-Jan-23 14:17 330 6 gusting 14 11.1
2020-Jan-23 13:47 316 8 gusting 15 11.7
2020-Jan-23 13:32 331 8 gusting 15 12.2
2020-Jan-23 13:16 329 6 gusting 13 11.7